Bennebroek, Netherlands
Current Conditions -  °F | °C
As of 4:25 PM on Saturday 22 Nov 2014 (Local Time) from EHAM Reporting Station
Clear Clear  
Wind Chill: 52°   Ceiling: Unl
Heat Index: 52°   Visibility: 6mi
Dew Point: 48°   Wind: 3mph
Humidity: 88%   Direction: 140°SE
Pressure: 30"   Gusts: NA
Location:  52.32°N, 4.6°E
Report Text: EHAM 221525Z 14003KT CAVOK 11/09 Q1016 NOSIG
Loading
Personal Weather Stations






























Interactive Weather Map New forecast layout! Learn more

10-Day Weather Forecast

Advertisements
Track Severe Weather on mobile